sensor_id;sensor_type;location;lat;lon;timestamp;P1;durP1;ratioP1;P2;durP2;ratioP2
9524;SDS011;15940;48.734;9.112;2023-02-28T00:01:25;3.77;;;2.30;;
9524;SDS011;15940;48.734;9.112;2023-02-28T00:03:52;2.97;;;2.47;;
9524;SDS011;15940;48.734;9.112;2023-02-28T00:06:19;3.07;;;2.40;;
9524;SDS011;15940;48.734;9.112;2023-02-28T00:08:46;3.40;;;2.47;;
9524;SDS011;15940;48.734;9.112;2023-02-28T00:11:14;3.23;;;2.43;;
9524;SDS011;15940;48.734;9.112;2023-02-28T00:13:44;4.87;;;2.47;;
9524;SDS011;15940;48.734;9.112;2023-02-28T00:16:14;5.17;;;2.30;;
9524;SDS011;15940;48.734;9.112;2023-02-28T00:18:42;4.50;;;2.40;;
9524;SDS011;15940;48.734;9.112;2023-02-28T00:21:10;2.67;;;2.37;;
9524;SDS011;15940;48.734;9.112;2023-02-28T00:23:37;3.63;;;2.57;;
9524;SDS011;15940;48.734;9.112;2023-02-28T00:26:04;2.50;;;2.30;;
9524;SDS011;15940;48.734;9.112;2023-02-28T00:28:31;3.10;;;2.40;;
9524;SDS011;15940;48.734;9.112;2023-02-28T00:30:59;3.90;;;2.33;;
9524;SDS011;15940;48.734;9.112;2023-02-28T00:33:26;3.43;;;2.57;;
9524;SDS011;15940;48.734;9.112;2023-02-28T00:36:00;6.70;;;2.33;;
9524;SDS011;15940;48.734;9.112;2023-02-28T00:38:29;3.00;;;2.40;;
9524;SDS011;15940;48.734;9.112;2023-02-28T00:40:56;4.27;;;2.50;;
9524;SDS011;15940;48.734;9.112;2023-02-28T00:43:29;3.07;;;2.30;;
9524;SDS011;15940;48.734;9.112;2023-02-28T00:45:57;4.33;;;2.30;;
9524;SDS011;15940;48.734;9.112;2023-02-28T00:48:26;5.17;;;2.50;;
9524;SDS011;15940;48.734;9.112;2023-02-28T00:50:53;2.50;;;2.30;;
9524;SDS011;15940;48.734;9.112;2023-02-28T00:53:20;2.90;;;2.30;;
9524;SDS011;15940;48.734;9.112;2023-02-28T00:55:47;4.33;;;2.30;;
9524;SDS011;15940;48.734;9.112;2023-02-28T00:58:15;2.70;;;2.40;;
9524;SDS011;15940;48.734;9.112;2023-02-28T01:00:42;2.43;;;2.10;;
9524;SDS011;15940;48.734;9.112;2023-02-28T01:03:15;3.50;;;2.40;;
9524;SDS011;15940;48.734;9.112;2023-02-28T01:05:42;3.67;;;2.40;;
9524;SDS011;15940;48.734;9.112;2023-02-28T01:08:09;2.67;;;2.47;;
9524;SDS011;15940;48.734;9.112;2023-02-28T01:10:37;5.17;;;2.60;;
9524;SDS011;15940;48.734;9.112;2023-02-28T01:13:04;3.00;;;2.40;;
9524;SDS011;15940;48.734;9.112;2023-02-28T01:15:31;4.70;;;2.77;;
9524;SDS011;15940;48.734;9.112;2023-02-28T01:17:59;3.83;;;2.63;;
9524;SDS011;15940;48.734;9.112;2023-02-28T01:20:27;3.20;;;2.50;;
9524;SDS011;15940;48.734;9.112;2023-02-28T01:22:54;3.17;;;2.83;;
9524;SDS011;15940;48.734;9.112;2023-02-28T01:25:21;3.33;;;2.70;;
9524;SDS011;15940;48.734;9.112;2023-02-28T01:27:47;3.50;;;2.77;;
9524;SDS011;15940;48.734;9.112;2023-02-28T01:30:14;3.67;;;2.83;;
9524;SDS011;15940;48.734;9.112;2023-02-28T01:32:42;3.50;;;2.67;;
9524;SDS011;15940;48.734;9.112;2023-02-28T01:35:09;3.10;;;2.53;;
9524;SDS011;15940;48.734;9.112;2023-02-28T01:37:37;3.60;;;2.73;;
9524;SDS011;15940;48.734;9.112;2023-02-28T01:40:05;7.83;;;2.70;;
9524;SDS011;15940;48.734;9.112;2023-02-28T01:42:33;6.23;;;3.60;;
9524;SDS011;15940;48.734;9.112;2023-02-28T01:45:03;3.67;;;2.47;;
9524;SDS011;15940;48.734;9.112;2023-02-28T01:47:42;4.10;;;3.00;;
9524;SDS011;15940;48.734;9.112;2023-02-28T01:50:12;4.20;;;2.73;;
9524;SDS011;15940;48.734;9.112;2023-02-28T01:52:44;2.80;;;2.60;;
9524;SDS011;15940;48.734;9.112;2023-02-28T01:55:13;5.30;;;3.10;;
9524;SDS011;15940;48.734;9.112;2023-02-28T01:57:43;3.00;;;2.70;;
9524;SDS011;15940;48.734;9.112;2023-02-28T02:00:15;3.80;;;3.00;;
9524;SDS011;15940;48.734;9.112;2023-02-28T02:02:46;3.20;;;2.80;;
9524;SDS011;15940;48.734;9.112;2023-02-28T02:05:17;6.80;;;2.80;;
9524;SDS011;15940;48.734;9.112;2023-02-28T02:07:49;5.00;;;3.50;;
9524;SDS011;15940;48.734;9.112;2023-02-28T02:10:19;3.20;;;2.70;;
9524;SDS011;15940;48.734;9.112;2023-02-28T02:13:01;3.30;;;2.77;;
9524;SDS011;15940;48.734;9.112;2023-02-28T02:15:45;3.43;;;2.67;;
9524;SDS011;15940;48.734;9.112;2023-02-28T02:18:30;3.80;;;3.20;;
9524;SDS011;15940;48.734;9.112;2023-02-28T02:21:19;3.90;;;3.07;;
9524;SDS011;15940;48.734;9.112;2023-02-28T02:24:47;3.07;;;2.50;;
9524;SDS011;15940;48.734;9.112;2023-02-28T02:27:47;3.47;;;3.00;;
9524;SDS011;15940;48.734;9.112;2023-02-28T02:30:37;3.47;;;3.13;;
9524;SDS011;15940;48.734;9.112;2023-02-28T02:33:29;3.63;;;3.27;;
9524;SDS011;15940;48.734;9.112;2023-02-28T02:36:47;5.13;;;3.23;;
9524;SDS011;15940;48.734;9.112;2023-02-28T02:39:19;3.80;;;3.30;;
9524;SDS011;15940;48.734;9.112;2023-02-28T02:41:56;4.67;;;3.40;;
9524;SDS011;15940;48.734;9.112;2023-02-28T02:44:28;4.07;;;3.07;;
9524;SDS011;15940;48.734;9.112;2023-02-28T02:47:03;3.77;;;3.30;;
9524;SDS011;15940;48.734;9.112;2023-02-28T02:49:36;3.77;;;3.37;;
9524;SDS011;15940;48.734;9.112;2023-02-28T02:52:09;6.20;;;3.23;;
9524;SDS011;15940;48.734;9.112;2023-02-28T02:54:40;5.33;;;3.33;;
9524;SDS011;15940;48.734;9.112;2023-02-28T02:57:11;4.77;;;3.23;;
9524;SDS011;15940;48.734;9.112;2023-02-28T02:59:44;4.73;;;3.27;;
9524;SDS011;15940;48.734;9.112;2023-02-28T03:02:12;3.80;;;3.50;;
9524;SDS011;15940;48.734;9.112;2023-02-28T03:04:43;5.20;;;3.87;;
9524;SDS011;15940;48.734;9.112;2023-02-28T03:07:17;4.87;;;4.00;;
9524;SDS011;15940;48.734;9.112;2023-02-28T03:09:49;5.07;;;3.70;;
9524;SDS011;15940;48.734;9.112;2023-02-28T03:12:18;5.00;;;3.37;;
9524;SDS011;15940;48.734;9.112;2023-02-28T03:14:49;4.23;;;3.83;;
9524;SDS011;15940;48.734;9.112;2023-02-28T03:17:38;4.57;;;3.50;;
9524;SDS011;15940;48.734;9.112;2023-02-28T03:20:23;4.20;;;3.30;;
9524;SDS011;15940;48.734;9.112;2023-02-28T03:23:07;4.47;;;3.90;;
9524;SDS011;15940;48.734;9.112;2023-02-28T03:25:45;4.03;;;3.67;;
9524;SDS011;15940;48.734;9.112;2023-02-28T03:28:24;5.07;;;3.80;;
9524;SDS011;15940;48.734;9.112;2023-02-28T03:31:03;6.47;;;3.63;;
9524;SDS011;15940;48.734;9.112;2023-02-28T03:33:38;5.23;;;4.00;;
9524;SDS011;15940;48.734;9.112;2023-02-28T03:36:21;4.60;;;3.60;;
9524;SDS011;15940;48.734;9.112;2023-02-28T03:38:54;5.90;;;4.17;;
9524;SDS011;15940;48.734;9.112;2023-02-28T03:41:27;3.83;;;3.50;;
9524;SDS011;15940;48.734;9.112;2023-02-28T03:44:03;5.33;;;3.57;;
9524;SDS011;15940;48.734;9.112;2023-02-28T03:46:40;5.93;;;4.17;;
9524;SDS011;15940;48.734;9.112;2023-02-28T03:49:15;5.30;;;4.10;;
9524;SDS011;15940;48.734;9.112;2023-02-28T03:51:48;4.77;;;3.97;;
9524;SDS011;15940;48.734;9.112;2023-02-28T03:54:18;4.73;;;4.13;;
9524;SDS011;15940;48.734;9.112;2023-02-28T03:56:51;7.50;;;3.93;;
9524;SDS011;15940;48.734;9.112;2023-02-28T03:59:27;5.30;;;4.27;;
9524;SDS011;15940;48.734;9.112;2023-02-28T04:02:00;6.00;;;4.33;;
9524;SDS011;15940;48.734;9.112;2023-02-28T04:04:27;5.87;;;4.00;;
9524;SDS011;15940;48.734;9.112;2023-02-28T04:07:02;6.40;;;4.33;;
9524;SDS011;15940;48.734;9.112;2023-02-28T04:09:32;4.33;;;3.73;;
9524;SDS011;15940;48.734;9.112;2023-02-28T04:11:59;4.47;;;4.00;;
9524;SDS011;15940;48.734;9.112;2023-02-28T04:14:26;5.90;;;4.17;;
9524;SDS011;15940;48.734;9.112;2023-02-28T04:16:53;5.43;;;4.50;;
9524;SDS011;15940;48.734;9.112;2023-02-28T04:19:20;7.00;;;3.83;;
9524;SDS011;15940;48.734;9.112;2023-02-28T04:21:48;7.10;;;4.57;;
9524;SDS011;15940;48.734;9.112;2023-02-28T04:24:18;5.87;;;4.10;;
9524;SDS011;15940;48.734;9.112;2023-02-28T04:26:47;6.63;;;4.60;;
9524;SDS011;15940;48.734;9.112;2023-02-28T04:29:18;4.67;;;3.80;;
9524;SDS011;15940;48.734;9.112;2023-02-28T04:31:47;23.27;;;12.20;;
9524;SDS011;15940;48.734;9.112;2023-02-28T04:34:14;16.67;;;8.27;;
9524;SDS011;15940;48.734;9.112;2023-02-28T04:36:43;7.23;;;3.90;;
9524;SDS011;15940;48.734;9.112;2023-02-28T04:39:13;6.53;;;4.43;;
9524;SDS011;15940;48.734;9.112;2023-02-28T04:41:43;6.03;;;4.13;;
9524;SDS011;15940;48.734;9.112;2023-02-28T04:44:10;4.53;;;4.07;;
9524;SDS011;15940;48.734;9.112;2023-02-28T04:46:37;4.90;;;4.20;;
9524;SDS011;15940;48.734;9.112;2023-02-28T04:49:04;5.17;;;4.17;;
9524;SDS011;15940;48.734;9.112;2023-02-28T04:51:31;6.60;;;4.17;;
9524;SDS011;15940;48.734;9.112;2023-02-28T04:53:58;5.90;;;4.30;;
9524;SDS011;15940;48.734;9.112;2023-02-28T04:56:25;8.30;;;4.57;;
9524;SDS011;15940;48.734;9.112;2023-02-28T04:58:53;10.77;;;4.43;;
9524;SDS011;15940;48.734;9.112;2023-02-28T05:01:21;5.57;;;4.43;;
9524;SDS011;15940;48.734;9.112;2023-02-28T05:03:50;4.40;;;4.00;;
9524;SDS011;15940;48.734;9.112;2023-02-28T05:06:20;5.43;;;4.40;;
9524;SDS011;15940;48.734;9.112;2023-02-28T05:08:48;4.20;;;3.80;;
9524;SDS011;15940;48.734;9.112;2023-02-28T05:11:17;5.77;;;4.57;;
9524;SDS011;15940;48.734;9.112;2023-02-28T05:13:45;7.33;;;5.07;;
9524;SDS011;15940;48.734;9.112;2023-02-28T05:16:15;7.53;;;4.83;;
9524;SDS011;15940;48.734;9.112;2023-02-28T05:18:42;6.40;;;4.67;;
9524;SDS011;15940;48.734;9.112;2023-02-28T05:21:19;7.97;;;4.80;;
9524;SDS011;15940;48.734;9.112;2023-02-28T05:23:53;6.97;;;4.43;;
9524;SDS011;15940;48.734;9.112;2023-02-28T05:26:22;6.40;;;4.80;;
9524;SDS011;15940;48.734;9.112;2023-02-28T05:28:50;7.00;;;5.03;;
9524;SDS011;15940;48.734;9.112;2023-02-28T05:31:18;5.90;;;4.13;;
9524;SDS011;15940;48.734;9.112;2023-02-28T05:33:45;6.27;;;4.60;;
9524;SDS011;15940;48.734;9.112;2023-02-28T05:36:12;5.17;;;4.47;;
9524;SDS011;15940;48.734;9.112;2023-02-28T05:38:40;6.00;;;4.70;;
9524;SDS011;15940;48.734;9.112;2023-02-28T05:41:07;7.40;;;5.33;;
9524;SDS011;15940;48.734;9.112;2023-02-28T05:43:35;6.67;;;4.87;;
9524;SDS011;15940;48.734;9.112;2023-02-28T05:46:04;7.23;;;4.80;;
9524;SDS011;15940;48.734;9.112;2023-02-28T05:48:34;8.17;;;5.13;;
9524;SDS011;15940;48.734;9.112;2023-02-28T05:51:02;8.03;;;5.03;;
9524;SDS011;15940;48.734;9.112;2023-02-28T05:53:30;8.97;;;5.30;;
9524;SDS011;15940;48.734;9.112;2023-02-28T05:55:57;6.37;;;5.23;;
9524;SDS011;15940;48.734;9.112;2023-02-28T05:58:24;8.57;;;5.50;;
9524;SDS011;15940;48.734;9.112;2023-02-28T06:00:55;6.43;;;5.57;;
9524;SDS011;15940;48.734;9.112;2023-02-28T06:03:22;6.83;;;5.10;;
9524;SDS011;15940;48.734;9.112;2023-02-28T06:05:50;7.13;;;4.67;;
9524;SDS011;15940;48.734;9.112;2023-02-28T06:08:17;5.90;;;5.07;;
9524;SDS011;15940;48.734;9.112;2023-02-28T06:10:44;8.27;;;5.10;;
9524;SDS011;15940;48.734;9.112;2023-02-28T06:13:11;7.73;;;4.90;;
9524;SDS011;15940;48.734;9.112;2023-02-28T06:15:38;7.40;;;5.23;;
9524;SDS011;15940;48.734;9.112;2023-02-28T06:18:05;6.50;;;5.50;;
9524;SDS011;15940;48.734;9.112;2023-02-28T06:20:33;7.77;;;5.30;;
9524;SDS011;15940;48.734;9.112;2023-02-28T06:23:02;7.93;;;5.70;;
9524;SDS011;15940;48.734;9.112;2023-02-28T06:25:29;7.23;;;5.53;;
9524;SDS011;15940;48.734;9.112;2023-02-28T06:27:56;9.80;;;5.83;;
9524;SDS011;15940;48.734;9.112;2023-02-28T06:30:23;8.63;;;6.40;;
9524;SDS011;15940;48.734;9.112;2023-02-28T06:32:51;8.07;;;5.63;;
9524;SDS011;15940;48.734;9.112;2023-02-28T06:35:19;8.10;;;5.80;;
9524;SDS011;15940;48.734;9.112;2023-02-28T06:37:46;9.53;;;6.13;;
9524;SDS011;15940;48.734;9.112;2023-02-28T06:40:14;8.10;;;6.00;;
9524;SDS011;15940;48.734;9.112;2023-02-28T06:42:42;8.13;;;5.97;;
9524;SDS011;15940;48.734;9.112;2023-02-28T06:45:09;7.47;;;5.83;;
9524;SDS011;15940;48.734;9.112;2023-02-28T06:47:37;9.17;;;6.13;;
9524;SDS011;15940;48.734;9.112;2023-02-28T06:50:06;9.67;;;6.03;;
9524;SDS011;15940;48.734;9.112;2023-02-28T06:52:36;6.73;;;5.70;;
9524;SDS011;15940;48.734;9.112;2023-02-28T06:55:03;8.13;;;6.30;;
9524;SDS011;15940;48.734;9.112;2023-02-28T06:57:33;11.00;;;5.73;;
9524;SDS011;15940;48.734;9.112;2023-02-28T07:00:03;9.13;;;5.40;;
9524;SDS011;15940;48.734;9.112;2023-02-28T07:02:33;9.30;;;6.07;;
9524;SDS011;15940;48.734;9.112;2023-02-28T07:05:01;7.70;;;5.73;;
9524;SDS011;15940;48.734;9.112;2023-02-28T07:07:28;9.93;;;5.80;;
9524;SDS011;15940;48.734;9.112;2023-02-28T07:09:55;7.23;;;6.00;;
9524;SDS011;15940;48.734;9.112;2023-02-28T07:12:21;8.63;;;6.23;;
9524;SDS011;15940;48.734;9.112;2023-02-28T07:14:50;8.70;;;6.70;;
9524;SDS011;15940;48.734;9.112;2023-02-28T07:17:17;9.03;;;6.87;;
9524;SDS011;15940;48.734;9.112;2023-02-28T07:19:43;8.00;;;6.37;;
9524;SDS011;15940;48.734;9.112;2023-02-28T07:22:10;10.53;;;6.77;;
9524;SDS011;15940;48.734;9.112;2023-02-28T07:24:37;9.80;;;6.70;;
9524;SDS011;15940;48.734;9.112;2023-02-28T07:27:04;12.80;;;7.57;;
9524;SDS011;15940;48.734;9.112;2023-02-28T07:29:31;8.07;;;6.47;;
9524;SDS011;15940;48.734;9.112;2023-02-28T07:31:59;8.33;;;6.80;;
9524;SDS011;15940;48.734;9.112;2023-02-28T07:34:26;9.13;;;7.07;;
9524;SDS011;15940;48.734;9.112;2023-02-28T07:36:53;10.10;;;7.07;;
9524;SDS011;15940;48.734;9.112;2023-02-28T07:39:21;10.23;;;7.47;;
9524;SDS011;15940;48.734;9.112;2023-02-28T07:41:48;10.33;;;6.83;;
9524;SDS011;15940;48.734;9.112;2023-02-28T07:44:15;9.13;;;6.43;;
9524;SDS011;15940;48.734;9.112;2023-02-28T07:46:42;11.53;;;7.40;;
9524;SDS011;15940;48.734;9.112;2023-02-28T07:49:10;8.63;;;6.97;;
9524;SDS011;15940;48.734;9.112;2023-02-28T07:51:37;9.37;;;6.77;;
9524;SDS011;15940;48.734;9.112;2023-02-28T07:54:04;10.13;;;6.70;;
9524;SDS011;15940;48.734;9.112;2023-02-28T07:56:31;8.93;;;6.70;;
9524;SDS011;15940;48.734;9.112;2023-02-28T07:58:58;9.33;;;7.00;;
9524;SDS011;15940;48.734;9.112;2023-02-28T08:01:26;13.30;;;7.40;;
9524;SDS011;15940;48.734;9.112;2023-02-28T08:03:53;8.63;;;7.10;;
9524;SDS011;15940;48.734;9.112;2023-02-28T08:06:24;8.47;;;6.67;;
9524;SDS011;15940;48.734;9.112;2023-02-28T08:08:52;8.93;;;7.27;;
9524;SDS011;15940;48.734;9.112;2023-02-28T08:11:21;7.80;;;6.77;;
9524;SDS011;15940;48.734;9.112;2023-02-28T08:13:48;9.83;;;7.33;;
9524;SDS011;15940;48.734;9.112;2023-02-28T08:16:15;9.13;;;6.40;;
9524;SDS011;15940;48.734;9.112;2023-02-28T08:18:47;10.37;;;7.27;;
9524;SDS011;15940;48.734;9.112;2023-02-28T08:21:14;9.27;;;7.40;;
9524;SDS011;15940;48.734;9.112;2023-02-28T08:23:43;8.87;;;6.57;;
9524;SDS011;15940;48.734;9.112;2023-02-28T08:26:10;9.27;;;7.23;;
9524;SDS011;15940;48.734;9.112;2023-02-28T08:28:36;8.67;;;6.67;;
9524;SDS011;15940;48.734;9.112;2023-02-28T08:31:07;8.60;;;6.73;;
9524;SDS011;15940;48.734;9.112;2023-02-28T08:33:35;8.47;;;7.00;;
9524;SDS011;15940;48.734;9.112;2023-02-28T08:36:04;8.60;;;6.90;;
9524;SDS011;15940;48.734;9.112;2023-02-28T08:38:32;11.07;;;7.73;;
9524;SDS011;15940;48.734;9.112;2023-02-28T08:41:01;9.73;;;7.00;;
9524;SDS011;15940;48.734;9.112;2023-02-28T08:43:32;8.47;;;6.47;;
9524;SDS011;15940;48.734;9.112;2023-02-28T08:45:59;8.07;;;6.50;;
9524;SDS011;15940;48.734;9.112;2023-02-28T08:48:27;11.63;;;6.93;;
9524;SDS011;15940;48.734;9.112;2023-02-28T08:50:56;8.13;;;7.20;;
9524;SDS011;15940;48.734;9.112;2023-02-28T08:53:24;8.53;;;6.80;;
9524;SDS011;15940;48.734;9.112;2023-02-28T08:55:57;10.33;;;7.50;;
9524;SDS011;15940;48.734;9.112;2023-02-28T08:58:27;9.57;;;7.47;;
9524;SDS011;15940;48.734;9.112;2023-02-28T09:00:55;8.77;;;6.83;;
9524;SDS011;15940;48.734;9.112;2023-02-28T09:03:22;9.53;;;7.40;;
9524;SDS011;15940;48.734;9.112;2023-02-28T09:05:52;9.47;;;7.17;;
9524;SDS011;15940;48.734;9.112;2023-02-28T09:08:21;9.77;;;7.53;;
9524;SDS011;15940;48.734;9.112;2023-02-28T09:10:49;8.47;;;6.63;;
9524;SDS011;15940;48.734;9.112;2023-02-28T09:13:17;10.30;;;7.43;;
9524;SDS011;15940;48.734;9.112;2023-02-28T09:15:45;10.53;;;7.20;;
9524;SDS011;15940;48.734;9.112;2023-02-28T09:18:12;10.07;;;7.27;;
9524;SDS011;15940;48.734;9.112;2023-02-28T09:20:40;8.57;;;6.83;;
9524;SDS011;15940;48.734;9.112;2023-02-28T09:23:08;9.40;;;7.27;;
9524;SDS011;15940;48.734;9.112;2023-02-28T09:25:37;12.47;;;7.50;;
9524;SDS011;15940;48.734;9.112;2023-02-28T09:28:11;11.33;;;7.23;;
9524;SDS011;15940;48.734;9.112;2023-02-28T09:30:39;11.07;;;7.27;;
9524;SDS011;15940;48.734;9.112;2023-02-28T09:33:07;9.40;;;7.20;;
9524;SDS011;15940;48.734;9.112;2023-02-28T09:35:34;10.83;;;7.97;;
9524;SDS011;15940;48.734;9.112;2023-02-28T09:38:02;9.33;;;7.23;;
9524;SDS011;15940;48.734;9.112;2023-02-28T09:40:34;9.83;;;7.57;;
9524;SDS011;15940;48.734;9.112;2023-02-28T09:43:03;9.13;;;7.13;;
9524;SDS011;15940;48.734;9.112;2023-02-28T09:45:33;9.60;;;7.33;;
9524;SDS011;15940;48.734;9.112;2023-02-28T09:48:04;9.57;;;6.93;;
9524;SDS011;15940;48.734;9.112;2023-02-28T09:50:38;9.40;;;6.63;;
9524;SDS011;15940;48.734;9.112;2023-02-28T09:53:13;7.77;;;6.47;;
9524;SDS011;15940;48.734;9.112;2023-02-28T09:55:48;9.13;;;6.83;;
9524;SDS011;15940;48.734;9.112;2023-02-28T09:58:22;10.27;;;7.20;;
9524;SDS011;15940;48.734;9.112;2023-02-28T10:00:57;8.03;;;6.63;;
9524;SDS011;15940;48.734;9.112;2023-02-28T10:03:34;9.90;;;7.13;;
9524;SDS011;15940;48.734;9.112;2023-02-28T10:06:07;12.53;;;7.23;;
9524;SDS011;15940;48.734;9.112;2023-02-28T10:08:41;10.80;;;7.33;;
9524;SDS011;15940;48.734;9.112;2023-02-28T10:11:19;9.60;;;7.73;;
9524;SDS011;15940;48.734;9.112;2023-02-28T10:13:51;8.77;;;7.20;;
9524;SDS011;15940;48.734;9.112;2023-02-28T10:16:28;10.37;;;7.37;;
9524;SDS011;15940;48.734;9.112;2023-02-28T10:19:02;10.00;;;7.47;;
9524;SDS011;15940;48.734;9.112;2023-02-28T10:21:35;10.20;;;7.77;;
9524;SDS011;15940;48.734;9.112;2023-02-28T10:24:11;11.53;;;8.13;;
9524;SDS011;15940;48.734;9.112;2023-02-28T10:26:46;9.07;;;7.03;;
9524;SDS011;15940;48.734;9.112;2023-02-28T10:29:14;10.97;;;7.80;;
9524;SDS011;15940;48.734;9.112;2023-02-28T10:31:42;9.40;;;7.33;;
9524;SDS011;15940;48.734;9.112;2023-02-28T10:34:12;9.27;;;7.67;;
9524;SDS011;15940;48.734;9.112;2023-02-28T10:36:39;9.27;;;7.40;;
9524;SDS011;15940;48.734;9.112;2023-02-28T10:42:02;8.83;;;7.60;;
9524;SDS011;15940;48.734;9.112;2023-02-28T10:44:29;10.37;;;7.97;;
9524;SDS011;15940;48.734;9.112;2023-02-28T10:46:56;9.53;;;7.80;;
9524;SDS011;15940;48.734;9.112;2023-02-28T10:49:25;12.27;;;7.73;;
9524;SDS011;15940;48.734;9.112;2023-02-28T10:51:54;10.17;;;7.77;;
9524;SDS011;15940;48.734;9.112;2023-02-28T10:54:26;8.97;;;7.37;;
9524;SDS011;15940;48.734;9.112;2023-02-28T10:57:05;12.80;;;8.17;;
9524;SDS011;15940;48.734;9.112;2023-02-28T10:59:42;11.37;;;7.63;;
9524;SDS011;15940;48.734;9.112;2023-02-28T11:05:00;9.37;;;6.73;;
9524;SDS011;15940;48.734;9.112;2023-02-28T11:07:27;9.20;;;7.17;;
9524;SDS011;15940;48.734;9.112;2023-02-28T11:09:54;11.33;;;8.37;;
9524;SDS011;15940;48.734;9.112;2023-02-28T11:12:23;8.97;;;7.60;;
9524;SDS011;15940;48.734;9.112;2023-02-28T11:14:55;9.93;;;8.03;;
9524;SDS011;15940;48.734;9.112;2023-02-28T11:17:26;8.87;;;7.67;;
9524;SDS011;15940;48.734;9.112;2023-02-28T11:19:57;8.87;;;7.03;;
9524;SDS011;15940;48.734;9.112;2023-02-28T11:22:29;8.40;;;7.27;;
9524;SDS011;15940;48.734;9.112;2023-02-28T11:25:06;9.03;;;7.47;;
9524;SDS011;15940;48.734;9.112;2023-02-28T11:27:44;9.60;;;7.53;;
9524;SDS011;15940;48.734;9.112;2023-02-28T11:30:28;13.27;;;8.07;;
9524;SDS011;15940;48.734;9.112;2023-02-28T11:33:01;8.87;;;7.50;;
9524;SDS011;15940;48.734;9.112;2023-02-28T11:35:53;9.33;;;7.60;;
9524;SDS011;15940;48.734;9.112;2023-02-28T11:38:26;11.20;;;8.03;;
9524;SDS011;15940;48.734;9.112;2023-02-28T11:40:59;9.37;;;7.23;;
9524;SDS011;15940;48.734;9.112;2023-02-28T11:43:47;10.77;;;8.03;;
9524;SDS011;15940;48.734;9.112;2023-02-28T11:46:35;9.17;;;7.93;;
9524;SDS011;15940;48.734;9.112;2023-02-28T11:49:13;9.87;;;7.97;;
9524;SDS011;15940;48.734;9.112;2023-02-28T11:51:59;12.53;;;7.63;;
9524;SDS011;15940;48.734;9.112;2023-02-28T11:54:35;8.70;;;7.73;;
9524;SDS011;15940;48.734;9.112;2023-02-28T11:57:27;8.77;;;7.37;;
9524;SDS011;15940;48.734;9.112;2023-02-28T12:00:15;9.70;;;7.63;;
9524;SDS011;15940;48.734;9.112;2023-02-28T12:03:00;11.70;;;7.93;;
9524;SDS011;15940;48.734;9.112;2023-02-28T12:05:42;11.10;;;7.60;;
9524;SDS011;15940;48.734;9.112;2023-02-28T12:08:18;10.33;;;7.37;;
9524;SDS011;15940;48.734;9.112;2023-02-28T12:11:06;9.57;;;7.63;;
9524;SDS011;15940;48.734;9.112;2023-02-28T12:13:46;9.07;;;7.60;;
9524;SDS011;15940;48.734;9.112;2023-02-28T12:16:40;11.70;;;8.20;;
9524;SDS011;15940;48.734;9.112;2023-02-28T12:19:19;8.83;;;7.47;;
9524;SDS011;15940;48.734;9.112;2023-02-28T12:21:56;8.37;;;7.47;;
9524;SDS011;15940;48.734;9.112;2023-02-28T12:27:46;8.47;;;7.57;;
9524;SDS011;15940;48.734;9.112;2023-02-28T12:30:16;9.57;;;7.27;;
9524;SDS011;15940;48.734;9.112;2023-02-28T12:32:48;8.37;;;7.10;;
9524;SDS011;15940;48.734;9.112;2023-02-28T12:35:22;10.73;;;7.47;;
9524;SDS011;15940;48.734;9.112;2023-02-28T12:37:54;11.90;;;7.80;;
9524;SDS011;15940;48.734;9.112;2023-02-28T12:40:32;11.10;;;7.60;;
9524;SDS011;15940;48.734;9.112;2023-02-28T12:43:12;8.87;;;7.20;;
9524;SDS011;15940;48.734;9.112;2023-02-28T12:45:43;8.87;;;7.50;;
9524;SDS011;15940;48.734;9.112;2023-02-28T12:48:15;9.27;;;7.20;;
9524;SDS011;15940;48.734;9.112;2023-02-28T12:50:47;9.67;;;7.80;;
9524;SDS011;15940;48.734;9.112;2023-02-28T12:53:17;8.23;;;7.27;;
9524;SDS011;15940;48.734;9.112;2023-02-28T12:55:54;9.07;;;7.60;;
9524;SDS011;15940;48.734;9.112;2023-02-28T12:58:35;8.50;;;7.30;;
9524;SDS011;15940;48.734;9.112;2023-02-28T13:01:20;8.60;;;7.33;;
9524;SDS011;15940;48.734;9.112;2023-02-28T13:07:33;8.27;;;7.47;;
9524;SDS011;15940;48.734;9.112;2023-02-28T13:10:24;8.07;;;7.07;;
9524;SDS011;15940;48.734;9.112;2023-02-28T13:13:12;8.03;;;6.83;;
9524;SDS011;15940;48.734;9.112;2023-02-28T13:15:56;9.73;;;7.43;;
9524;SDS011;15940;48.734;9.112;2023-02-28T13:18:33;11.03;;;7.00;;
9524;SDS011;15940;48.734;9.112;2023-02-28T13:21:04;9.50;;;7.60;;
9524;SDS011;15940;48.734;9.112;2023-02-28T13:23:36;8.50;;;7.43;;
9524;SDS011;15940;48.734;9.112;2023-02-28T13:30:01;10.30;;;8.27;;
9524;SDS011;15940;48.734;9.112;2023-02-28T13:33:28;9.20;;;7.10;;
9524;SDS011;15940;48.734;9.112;2023-02-28T13:36:07;9.33;;;7.30;;
9524;SDS011;15940;48.734;9.112;2023-02-28T13:38:37;9.73;;;7.13;;
9524;SDS011;15940;48.734;9.112;2023-02-28T13:44:14;7.40;;;6.70;;
9524;SDS011;15940;48.734;9.112;2023-02-28T13:49:50;8.13;;;7.33;;
9524;SDS011;15940;48.734;9.112;2023-02-28T13:52:20;10.70;;;7.60;;
9524;SDS011;15940;48.734;9.112;2023-02-28T13:54:55;8.50;;;7.53;;
9524;SDS011;15940;48.734;9.112;2023-02-28T13:57:33;9.90;;;7.27;;
9524;SDS011;15940;48.734;9.112;2023-02-28T14:00:17;12.73;;;7.23;;
9524;SDS011;15940;48.734;9.112;2023-02-28T14:03:02;8.80;;;6.67;;
9524;SDS011;15940;48.734;9.112;2023-02-28T14:06:10;7.63;;;6.87;;
9524;SDS011;15940;48.734;9.112;2023-02-28T14:08:52;13.13;;;7.23;;
9524;SDS011;15940;48.734;9.112;2023-02-28T14:11:29;9.63;;;7.17;;
9524;SDS011;15940;48.734;9.112;2023-02-28T14:13:58;8.10;;;7.17;;
9524;SDS011;15940;48.734;9.112;2023-02-28T14:16:27;9.30;;;7.17;;
9524;SDS011;15940;48.734;9.112;2023-02-28T14:19:05;8.60;;;7.27;;
9524;SDS011;15940;48.734;9.112;2023-02-28T14:21:43;9.83;;;7.80;;
9524;SDS011;15940;48.734;9.112;2023-02-28T14:24:25;9.50;;;7.27;;
9524;SDS011;15940;48.734;9.112;2023-02-28T14:27:30;8.83;;;7.93;;
9524;SDS011;15940;48.734;9.112;2023-02-28T14:33:35;12.50;;;7.33;;
9524;SDS011;15940;48.734;9.112;2023-02-28T14:36:32;8.73;;;7.00;;
9524;SDS011;15940;48.734;9.112;2023-02-28T14:39:06;8.53;;;7.30;;
9524;SDS011;15940;48.734;9.112;2023-02-28T14:41:40;7.60;;;6.87;;
9524;SDS011;15940;48.734;9.112;2023-02-28T14:44:14;8.07;;;7.27;;
9524;SDS011;15940;48.734;9.112;2023-02-28T14:46:43;9.93;;;7.43;;
9524;SDS011;15940;48.734;9.112;2023-02-28T14:49:15;8.00;;;7.17;;
9524;SDS011;15940;48.734;9.112;2023-02-28T14:52:01;8.77;;;7.30;;
9524;SDS011;15940;48.734;9.112;2023-02-28T14:54:35;8.20;;;6.63;;
9524;SDS011;15940;48.734;9.112;2023-02-28T14:57:03;9.23;;;7.63;;
9524;SDS011;15940;48.734;9.112;2023-02-28T14:59:31;8.43;;;6.60;;
9524;SDS011;15940;48.734;9.112;2023-02-28T15:02:16;8.63;;;6.93;;
9524;SDS011;15940;48.734;9.112;2023-02-28T15:04:55;9.03;;;6.80;;
9524;SDS011;15940;48.734;9.112;2023-02-28T15:07:25;7.93;;;7.13;;
9524;SDS011;15940;48.734;9.112;2023-02-28T15:10:10;11.27;;;6.90;;
9524;SDS011;15940;48.734;9.112;2023-02-28T15:12:46;7.90;;;6.90;;
9524;SDS011;15940;48.734;9.112;2023-02-28T15:15:21;7.90;;;6.80;;
9524;SDS011;15940;48.734;9.112;2023-02-28T15:17:51;8.20;;;7.10;;
9524;SDS011;15940;48.734;9.112;2023-02-28T15:20:22;8.27;;;6.90;;
9524;SDS011;15940;48.734;9.112;2023-02-28T15:22:52;8.20;;;7.33;;
9524;SDS011;15940;48.734;9.112;2023-02-28T15:25:22;10.37;;;7.27;;
9524;SDS011;15940;48.734;9.112;2023-02-28T15:27:50;8.83;;;6.97;;
9524;SDS011;15940;48.734;9.112;2023-02-28T15:30:21;8.50;;;7.10;;
9524;SDS011;15940;48.734;9.112;2023-02-28T15:33:03;10.23;;;7.30;;
9524;SDS011;15940;48.734;9.112;2023-02-28T15:35:44;8.03;;;6.90;;
9524;SDS011;15940;48.734;9.112;2023-02-28T15:38:14;10.90;;;8.53;;
9524;SDS011;15940;48.734;9.112;2023-02-28T15:40:49;9.33;;;7.47;;
9524;SDS011;15940;48.734;9.112;2023-02-28T15:43:23;8.50;;;7.50;;
9524;SDS011;15940;48.734;9.112;2023-02-28T15:45:53;7.83;;;6.90;;
9524;SDS011;15940;48.734;9.112;2023-02-28T15:48:26;8.33;;;6.70;;
9524;SDS011;15940;48.734;9.112;2023-02-28T15:50:57;10.90;;;7.30;;
9524;SDS011;15940;48.734;9.112;2023-02-28T15:53:30;10.37;;;7.50;;
9524;SDS011;15940;48.734;9.112;2023-02-28T15:56:01;10.47;;;7.50;;
9524;SDS011;15940;48.734;9.112;2023-02-28T15:58:32;9.63;;;7.60;;